Sutter, Illinois
Current Conditions -  °F | °C
As of 7:35 AM on Wednesday 26 Nov 2014 (Local Time) from KEOK Reporting Station
Broken Clouds Broken Clouds  
Wind Chill: 21°   Ceiling: 6000
Heat Index: 30°   Visibility: 10mi
Dew Point: 27°   Wind: 10mph
Humidity: 86%   Direction: 110°ESE
Pressure: 29.98"   Gusts: NA
Location:  40.28°N, 91.34°W
Report Text: KEOK 261335Z AUTO 11009KT 10SM FEW044 SCT050 BKN060 M01/M03 A2998 RMK AO2
Loading
Personal Weather Stations






























Interactive Weather Map New forecast layout! Learn more

10-Day Weather Forecast

Advertisements
Track Severe Weather on mobile